createdAt,value
2018-11-01T00:01:42.917Z,10.30
2018-11-01T00:04:11.843Z,10.30
2018-11-01T00:06:40.801Z,10.20
2018-11-01T00:09:10.044Z,10.20
2018-11-01T00:11:39.025Z,10.10
2018-11-01T00:14:08.320Z,10.00
2018-11-01T00:16:37.270Z,9.90
2018-11-01T00:19:06.451Z,10.00
2018-11-01T00:21:35.476Z,10.00
2018-11-01T00:24:04.432Z,10.00
2018-11-01T00:26:33.394Z,10.00
2018-11-01T00:29:02.404Z,10.00
2018-11-01T00:31:31.410Z,10.10
2018-11-01T00:34:00.373Z,10.20
2018-11-01T00:36:29.363Z,10.10
2018-11-01T00:38:58.377Z,9.80
2018-11-01T00:41:28.586Z,9.80
2018-11-01T00:43:57.602Z,10.00
2018-11-01T00:46:26.538Z,10.30
2018-11-01T00:48:55.491Z,10.30
2018-11-01T00:51:24.556Z,10.20
2018-11-01T00:53:54.447Z,9.90
2018-11-01T00:56:23.475Z,9.80
2018-11-01T00:58:52.450Z,9.90
2018-11-01T01:01:21.421Z,10.10
2018-11-01T01:03:50.416Z,10.00
2018-11-01T01:06:19.391Z,9.90
2018-11-01T01:08:48.353Z,10.00
2018-11-01T01:11:17.289Z,10.00
2018-11-01T01:13:46.236Z,10.00
2018-11-01T01:16:15.217Z,9.90
2018-11-01T01:18:44.248Z,10.00
2018-11-01T01:21:13.213Z,10.00
2018-11-01T01:23:42.208Z,10.10
2018-11-01T01:26:11.144Z,10.20
2018-11-01T01:28:40.101Z,10.20
2018-11-01T01:31:09.032Z,10.00
2018-11-01T01:33:37.984Z,9.80
2018-11-01T01:36:06.941Z,9.60
2018-11-01T01:38:35.900Z,9.50
2018-11-01T01:41:05.061Z,9.80
2018-11-01T01:43:34.122Z,9.90
2018-11-01T01:46:03.061Z,9.90
2018-11-01T01:48:31.999Z,9.80
2018-11-01T01:51:00.957Z,9.70
2018-11-01T01:53:29.891Z,9.80
2018-11-01T01:55:58.825Z,9.80
2018-11-01T01:58:27.774Z,9.90
2018-11-01T02:00:57.288Z,9.70
2018-11-01T02:03:26.304Z,9.80
2018-11-01T02:05:55.260Z,9.60
2018-11-01T02:08:24.234Z,9.50
2018-11-01T02:10:53.229Z,9.40
2018-11-01T02:13:22.185Z,9.60
2018-11-01T02:15:51.131Z,9.40
2018-11-01T02:18:20.156Z,9.30
2018-11-01T02:20:49.082Z,9.40
2018-11-01T02:23:18.045Z,9.50
2018-11-01T02:25:46.963Z,9.60
2018-11-01T02:28:18.840Z,9.60
2018-11-01T02:30:47.861Z,9.50
2018-11-01T02:33:16.819Z,9.40
2018-11-01T02:35:45.858Z,9.40
2018-11-01T02:38:14.979Z,9.50
2018-11-01T02:40:43.816Z,9.60
2018-11-01T02:43:12.778Z,9.30
2018-11-01T02:45:41.728Z,8.90
2018-11-01T02:48:10.690Z,8.60
2018-11-01T02:50:39.631Z,8.40
2018-11-01T02:53:08.652Z,8.70
2018-11-01T02:55:37.567Z,8.70
2018-11-01T02:58:06.736Z,8.60
2018-11-01T03:00:35.662Z,8.50
2018-11-01T03:03:04.897Z,8.50
2018-11-01T03:05:33.826Z,8.70
2018-11-01T03:08:02.759Z,9.00
2018-11-01T03:10:31.717Z,9.00
2018-11-01T03:13:00.669Z,9.00
2018-11-01T03:15:29.607Z,9.10
2018-11-01T03:17:58.540Z,9.10
2018-11-01T03:20:27.498Z,9.00
2018-11-01T03:22:56.523Z,8.80
2018-11-01T03:25:25.539Z,8.50
2018-11-01T03:27:54.469Z,8.30
2018-11-01T03:30:23.458Z,8.60
2018-11-01T03:32:52.371Z,8.60
2018-11-01T03:35:21.301Z,8.60
2018-11-01T03:37:50.251Z,8.80
2018-11-01T03:40:19.202Z,8.80
2018-11-01T03:42:48.137Z,8.90
2018-11-01T03:45:17.217Z,8.80
2018-11-01T03:47:46.120Z,8.60
2018-11-01T03:50:15.064Z,8.50
2018-11-01T03:52:43.998Z,8.50
2018-11-01T03:55:13.048Z,8.60
2018-11-01T03:57:42.557Z,8.40
2018-11-01T04:00:13.920Z,8.60
2018-11-01T04:02:43.209Z,8.60
2018-11-01T04:05:12.158Z,8.50
2018-11-01T04:07:41.860Z,8.30
2018-11-01T04:10:11.632Z,8.10
2018-11-01T04:12:40.579Z,8.20
2018-11-01T04:15:11.790Z,8.30
2018-11-01T04:17:40.638Z,8.40
2018-11-01T04:20:10.886Z,8.10
2018-11-01T04:22:40.060Z,8.20
2018-11-01T04:25:09.132Z,8.00
2018-11-01T04:27:38.072Z,8.10
2018-11-01T04:30:07.578Z,8.20
2018-11-01T04:32:36.528Z,8.30
2018-11-01T04:35:06.221Z,8.10
2018-11-01T04:37:35.159Z,8.00
2018-11-01T04:40:04.198Z,8.20
2018-11-01T04:42:33.204Z,8.40
2018-11-01T04:45:02.165Z,8.40
2018-11-01T04:47:31.162Z,8.30
2018-11-01T04:50:00.047Z,8.20
2018-11-01T04:52:28.959Z,8.00
2018-11-01T04:54:57.931Z,8.20
2018-11-01T04:57:27.092Z,8.10
2018-11-01T04:59:56.037Z,8.20
2018-11-01T05:02:24.986Z,8.10
2018-11-01T05:04:53.967Z,8.00
2018-11-01T05:07:22.901Z,7.90
2018-11-01T05:09:51.846Z,7.80
2018-11-01T05:12:20.886Z,7.70
2018-11-01T05:14:49.847Z,7.90
2018-11-01T05:17:18.789Z,8.10
2018-11-01T05:19:47.740Z,7.90
2018-11-01T05:22:16.656Z,7.90
2018-11-01T05:24:45.682Z,7.90
2018-11-01T05:27:14.529Z,7.70
2018-11-01T05:29:43.478Z,7.70
2018-11-01T05:32:12.406Z,7.60
2018-11-01T05:34:41.358Z,7.40
2018-11-01T05:37:10.369Z,7.10
2018-11-01T05:39:39.392Z,7.50
2018-11-01T05:42:08.404Z,7.70
2018-11-01T05:44:37.379Z,7.60
2018-11-01T05:47:06.362Z,7.60
2018-11-01T05:49:35.312Z,7.60
2018-11-01T05:52:04.278Z,7.60
2018-11-01T05:54:33.229Z,7.80
2018-11-01T05:57:02.244Z,7.80
2018-11-01T05:59:31.189Z,8.00
2018-11-01T06:02:03.191Z,8.00
2018-11-01T06:04:32.116Z,8.00
2018-11-01T06:07:01.054Z,7.90
2018-11-01T06:09:30.201Z,7.90
2018-11-01T06:11:59.168Z,7.70
2018-11-01T06:14:28.591Z,7.90
2018-11-01T06:16:57.924Z,7.90
2018-11-01T06:19:26.863Z,7.70
2018-11-01T06:21:55.803Z,7.70
2018-11-01T06:24:24.731Z,7.70
2018-11-01T06:26:53.703Z,7.90
2018-11-01T06:29:22.623Z,7.90
2018-11-01T06:31:51.572Z,7.70
2018-11-01T06:34:25.999Z,7.70
2018-11-01T06:36:55.130Z,7.70
2018-11-01T06:39:24.066Z,8.00
2018-11-01T06:41:53.367Z,8.10
2018-11-01T06:44:23.182Z,8.10
2018-11-01T06:46:52.076Z,7.90
2018-11-01T06:49:21.103Z,7.70
2018-11-01T06:51:50.077Z,7.80
2018-11-01T06:54:19.107Z,8.00
2018-11-01T06:56:48.102Z,8.00
2018-11-01T06:59:17.334Z,8.20
2018-11-01T07:01:46.058Z,8.20
2018-11-01T07:04:15.061Z,8.20
2018-11-01T07:06:44.000Z,8.20
2018-11-01T07:09:13.878Z,8.30
2018-11-01T07:11:43.447Z,8.50
2018-11-01T07:14:12.394Z,8.60
2018-11-01T07:16:41.335Z,8.60
2018-11-01T07:19:10.350Z,8.70
2018-11-01T07:21:39.349Z,9.00
2018-11-01T07:24:08.290Z,9.00
2018-11-01T07:26:37.376Z,8.90
2018-11-01T07:29:06.253Z,8.90
2018-11-01T07:31:35.199Z,8.70
2018-11-01T07:34:04.148Z,8.60
2018-11-01T07:36:33.262Z,8.60
2018-11-01T07:39:02.237Z,8.50
2018-11-01T07:41:31.161Z,8.60
2018-11-01T07:44:00.188Z,8.60
2018-11-01T07:46:29.111Z,8.60
2018-11-01T07:48:58.066Z,8.70
2018-11-01T07:51:27.054Z,8.40
2018-11-01T07:53:56.035Z,8.40
2018-11-01T07:56:26.410Z,8.40
2018-11-01T07:58:55.392Z,8.40
2018-11-01T08:01:24.331Z,8.30
2018-11-01T08:03:53.284Z,8.30
2018-11-01T08:06:22.227Z,8.40
2018-11-01T08:08:51.191Z,8.40
2018-11-01T08:11:20.862Z,8.40
2018-11-01T08:13:49.919Z,8.40
2018-11-01T08:16:18.903Z,8.60
2018-11-01T08:18:47.889Z,8.90
2018-11-01T08:21:16.952Z,8.60
2018-11-01T08:23:45.933Z,8.70
2018-11-01T08:26:14.906Z,8.80
2018-11-01T08:28:43.929Z,9.00
2018-11-01T08:31:12.921Z,8.80
2018-11-01T08:33:41.909Z,8.90
2018-11-01T08:36:12.335Z,9.00
2018-11-01T08:38:41.381Z,8.80
2018-11-01T08:41:10.590Z,9.00
2018-11-01T08:43:39.532Z,8.90
2018-11-01T08:46:08.593Z,9.30
2018-11-01T08:48:37.576Z,8.90
2018-11-01T08:51:06.870Z,8.70
2018-11-01T08:53:35.833Z,8.80
2018-11-01T08:56:07.595Z,8.90
2018-11-01T08:58:36.596Z,8.90
2018-11-01T09:01:05.562Z,8.90
2018-11-01T09:03:34.526Z,8.80
2018-11-01T09:06:03.455Z,8.80
2018-11-01T09:08:32.427Z,8.80
2018-11-01T09:11:01.463Z,9.20
2018-11-01T09:13:30.409Z,9.60
2018-11-01T09:15:59.335Z,10.00
2018-11-01T09:18:28.263Z,10.10
2018-11-01T09:20:57.243Z,10.30
2018-11-01T09:23:26.183Z,10.50
2018-11-01T09:25:55.128Z,10.60
2018-11-01T09:28:24.070Z,10.60
2018-11-01T09:30:53.091Z,10.70
2018-11-01T09:33:22.092Z,10.70
2018-11-01T09:35:51.098Z,10.60
2018-11-01T09:38:20.117Z,10.70
2018-11-01T09:40:49.102Z,10.80
2018-11-01T09:43:18.071Z,10.80
2018-11-01T09:45:47.044Z,10.70
2018-11-01T09:48:15.999Z,10.80
2018-11-01T09:50:44.956Z,10.80
2018-11-01T09:53:13.905Z,10.80
2018-11-01T09:55:43.025Z,10.80
2018-11-01T09:58:11.945Z,10.80
2018-11-01T10:00:40.919Z,10.70
2018-11-01T10:03:09.888Z,10.50
2018-11-01T10:05:38.908Z,10.40
2018-11-01T10:08:07.968Z,10.40
2018-11-01T10:10:37.052Z,10.50
2018-11-01T10:13:06.055Z,10.60
2018-11-01T10:15:35.277Z,10.70
2018-11-01T10:18:04.309Z,10.70
2018-11-01T10:20:33.036Z,10.80
2018-11-01T10:23:02.149Z,10.80
2018-11-01T10:25:31.297Z,10.80
2018-11-01T10:28:00.112Z,10.90
2018-11-01T10:30:29.096Z,10.80
2018-11-01T10:32:58.070Z,11.00
2018-11-01T10:35:27.025Z,11.10
2018-11-01T10:37:56.157Z,11.20
2018-11-01T10:40:25.170Z,11.10
2018-11-01T10:42:54.614Z,11.20
2018-11-01T10:45:23.621Z,11.20
2018-11-01T10:47:52.667Z,11.20
2018-11-01T10:50:21.670Z,11.20
2018-11-01T10:52:50.664Z,11.10
2018-11-01T10:55:19.753Z,11.20
2018-11-01T10:57:48.788Z,11.20
2018-11-01T11:00:23.362Z,11.30
2018-11-01T11:02:52.696Z,11.30
2018-11-01T11:05:22.653Z,11.30
2018-11-01T11:07:51.724Z,11.40
2018-11-01T11:10:20.873Z,11.40
2018-11-01T11:12:49.860Z,11.40
2018-11-01T11:15:18.847Z,11.30
2018-11-01T11:17:47.886Z,11.40
2018-11-01T11:20:16.962Z,11.40
2018-11-01T11:22:45.925Z,11.40
2018-11-01T11:25:15.067Z,11.30
2018-11-01T11:27:44.045Z,11.40
2018-11-01T11:30:13.529Z,11.50
2018-11-01T11:32:42.489Z,11.40
2018-11-01T11:35:11.815Z,11.50
2018-11-01T11:37:40.846Z,11.40
2018-11-01T11:40:11.214Z,11.30
2018-11-01T11:42:40.870Z,11.30
2018-11-01T11:45:11.124Z,11.40
2018-11-01T11:47:40.501Z,11.40
2018-11-01T11:50:10.713Z,11.40
2018-11-01T11:52:40.012Z,11.40
2018-11-01T11:55:09.732Z,11.40
2018-11-01T11:57:39.101Z,11.50
2018-11-01T12:00:10.363Z,11.60
2018-11-01T12:02:39.382Z,11.70
2018-11-01T12:05:08.824Z,11.70
2018-11-01T12:10:08.300Z,11.70
2018-11-01T12:12:37.288Z,11.80
2018-11-01T12:15:14.021Z,11.70
2018-11-01T12:17:43.304Z,11.70
2018-11-01T12:20:13.930Z,12.00
2018-11-01T12:22:42.976Z,12.10
2018-11-01T12:25:12.294Z,11.90
2018-11-01T12:27:41.299Z,12.10
2018-11-01T12:30:11.328Z,12.10
2018-11-01T12:32:40.297Z,12.10
2018-11-01T12:35:10.056Z,12.20
2018-11-01T12:37:39.206Z,12.20
2018-11-01T12:40:10.127Z,12.30
2018-11-01T12:42:39.114Z,12.30
2018-11-01T12:45:09.474Z,12.20
2018-11-01T12:47:38.493Z,12.00
2018-11-01T12:50:09.291Z,11.90
2018-11-01T12:52:38.219Z,11.80
2018-11-01T12:55:07.304Z,11.90
2018-11-01T12:57:36.411Z,11.90
2018-11-01T13:00:06.270Z,11.90
2018-11-01T13:02:35.319Z,12.00
2018-11-01T13:05:04.270Z,12.00
2018-11-01T13:07:33.266Z,12.10
2018-11-01T13:10:02.267Z,12.00
2018-11-01T13:12:35.565Z,12.10
2018-11-01T13:15:09.369Z,11.90
2018-11-01T13:17:39.485Z,12.10
2018-11-01T13:20:08.818Z,12.00
2018-11-01T13:22:37.892Z,12.10
2018-11-01T13:25:08.015Z,12.30
2018-11-01T13:27:36.980Z,12.30
2018-11-01T13:30:07.977Z,12.30
2018-11-01T13:32:36.947Z,12.10
2018-11-01T13:35:06.210Z,12.00
2018-11-01T13:37:35.155Z,12.00
2018-11-01T13:40:04.385Z,12.00
2018-11-01T13:42:33.201Z,12.30
2018-11-01T13:45:02.188Z,12.40
2018-11-01T13:47:31.476Z,12.40
2018-11-01T13:50:00.327Z,12.40
2018-11-01T13:52:29.308Z,12.40
2018-11-01T13:54:58.305Z,12.30
2018-11-01T13:57:27.335Z,12.20
2018-11-01T13:59:56.354Z,11.90
2018-11-01T14:02:25.336Z,11.80
2018-11-01T14:04:54.340Z,11.70
2018-11-01T14:07:23.333Z,11.70
2018-11-01T14:09:52.323Z,11.70
2018-11-01T14:12:21.446Z,12.00
2018-11-01T14:14:50.709Z,12.40
2018-11-01T14:17:19.474Z,12.50
2018-11-01T14:19:48.498Z,12.40
2018-11-01T14:22:17.468Z,12.40
2018-11-01T14:24:46.468Z,12.10
2018-11-01T14:27:15.577Z,11.90
2018-11-01T14:29:44.502Z,12.00
2018-11-01T14:32:13.502Z,11.80
2018-11-01T14:34:42.625Z,11.80
2018-11-01T14:37:11.637Z,11.80
2018-11-01T14:39:40.671Z,11.80
2018-11-01T14:42:09.760Z,11.80
2018-11-01T14:44:38.897Z,11.80
2018-11-01T14:47:07.992Z,11.80
2018-11-01T14:49:37.099Z,12.20
2018-11-01T14:52:06.579Z,12.50
2018-11-01T14:54:35.824Z,12.50
2018-11-01T14:57:05.251Z,12.50
2018-11-01T14:59:35.462Z,12.30
2018-11-01T15:02:03.297Z,12.00
2018-11-01T15:04:32.339Z,11.90
2018-11-01T15:07:01.307Z,11.80
2018-11-01T15:09:30.300Z,11.80
2018-11-01T15:11:59.327Z,11.90
2018-11-01T15:14:28.272Z,11.80
2018-11-01T15:16:57.262Z,11.90
2018-11-01T15:19:26.229Z,11.80
2018-11-01T15:21:55.224Z,11.70
2018-11-01T15:24:24.219Z,11.60
2018-11-01T15:26:53.244Z,11.60
2018-11-01T15:29:22.214Z,11.60
2018-11-01T15:31:51.207Z,11.60
2018-11-01T15:34:20.289Z,11.60
2018-11-01T15:36:49.713Z,11.80
2018-11-01T15:39:18.721Z,12.00
2018-11-01T15:41:47.720Z,11.70
2018-11-01T15:44:16.707Z,11.80
2018-11-01T15:46:45.686Z,11.90
2018-11-01T15:49:14.684Z,12.10
2018-11-01T15:51:43.700Z,12.00
2018-11-01T15:54:12.693Z,12.10
2018-11-01T15:56:41.678Z,12.10
2018-11-01T15:59:10.660Z,12.20
2018-11-01T16:01:39.637Z,12.00
2018-11-01T16:04:08.678Z,11.70
2018-11-01T16:06:37.644Z,11.50
2018-11-01T16:09:12.474Z,11.40
2018-11-01T16:11:41.576Z,11.50
2018-11-01T16:14:11.071Z,11.60
2018-11-01T16:16:41.878Z,11.60
2018-11-01T16:19:11.425Z,11.60
2018-11-01T16:21:40.885Z,11.70
2018-11-01T16:24:09.981Z,11.60
2018-11-01T16:26:38.977Z,11.80
2018-11-01T16:29:08.088Z,11.80
2018-11-01T16:31:37.119Z,11.60
2018-11-01T16:34:06.137Z,11.40
2018-11-01T16:36:35.340Z,11.20
2018-11-01T16:39:06.218Z,11.30
2018-11-01T16:41:35.222Z,11.40
2018-11-01T16:44:04.267Z,11.40
2018-11-01T16:46:33.253Z,11.60
2018-11-01T16:49:02.222Z,11.70
2018-11-01T16:51:31.230Z,11.80
2018-11-01T16:54:00.231Z,11.70
2018-11-01T16:56:29.228Z,11.70
2018-11-01T16:58:58.193Z,11.60
2018-11-01T17:01:27.201Z,11.60
2018-11-01T17:03:56.434Z,11.60
2018-11-01T17:06:25.427Z,11.40
2018-11-01T17:08:54.434Z,11.20
2018-11-01T17:11:23.411Z,11.10
2018-11-01T17:13:52.469Z,11.00
2018-11-01T17:16:21.548Z,11.20
2018-11-01T17:18:50.541Z,11.20
2018-11-01T17:21:19.514Z,11.10
2018-11-01T17:23:48.537Z,11.10
2018-11-01T17:26:17.539Z,11.00
2018-11-01T17:28:46.516Z,11.10
2018-11-01T17:31:15.516Z,11.30
2018-11-01T17:33:44.504Z,11.30
2018-11-01T17:36:13.492Z,11.40
2018-11-01T17:38:42.551Z,11.40
2018-11-01T17:41:11.524Z,11.70
2018-11-01T17:43:40.980Z,11.60
2018-11-01T17:46:10.235Z,11.60
2018-11-01T17:48:39.230Z,11.40
2018-11-01T17:51:08.280Z,11.20
2018-11-01T17:53:37.532Z,11.20
2018-11-01T17:56:06.507Z,11.20
2018-11-01T17:58:35.488Z,11.20
2018-11-01T18:01:04.965Z,11.20
2018-11-01T18:03:33.971Z,11.20
2018-11-01T18:06:02.958Z,11.30
2018-11-01T18:08:32.063Z,11.20
2018-11-01T18:11:00.937Z,11.30
2018-11-01T18:13:29.952Z,11.10
2018-11-01T18:16:00.287Z,11.10
2018-11-01T18:18:29.379Z,11.10
2018-11-01T18:20:58.349Z,11.30
2018-11-01T18:23:27.399Z,11.20
2018-11-01T18:25:56.338Z,11.50
2018-11-01T18:28:25.296Z,11.50
2018-11-01T18:30:54.259Z,11.30
2018-11-01T18:33:23.233Z,11.10
2018-11-01T18:35:52.205Z,10.80
2018-11-01T18:38:22.003Z,10.90
2018-11-01T18:40:50.970Z,10.80
2018-11-01T18:43:19.987Z,10.70
2018-11-01T18:45:48.963Z,10.70
2018-11-01T18:48:17.984Z,10.70
2018-11-01T18:50:47.011Z,10.70
2018-11-01T18:53:16.738Z,10.70
2018-11-01T18:55:45.733Z,10.70
2018-11-01T18:58:14.737Z,10.70
2018-11-01T19:00:43.774Z,10.80
2018-11-01T19:03:12.733Z,10.70
2018-11-01T19:05:41.711Z,10.80
2018-11-01T19:10:41.304Z,10.70
2018-11-01T19:13:10.320Z,10.50
2018-11-01T19:15:39.316Z,10.30
2018-11-01T19:18:08.884Z,10.20
2018-11-01T19:20:37.895Z,10.40
2018-11-01T19:23:06.908Z,10.30
2018-11-01T19:25:35.948Z,10.40
2018-11-01T19:28:04.985Z,10.60
2018-11-01T19:30:34.045Z,10.50
2018-11-01T19:33:03.021Z,10.30
2018-11-01T19:35:32.009Z,10.30
2018-11-01T19:38:01.005Z,10.30
2018-11-01T19:40:30.127Z,10.30
2018-11-01T19:42:59.176Z,10.20
2018-11-01T19:45:28.247Z,10.20
2018-11-01T19:47:57.292Z,10.10
2018-11-01T19:50:26.248Z,10.00
2018-11-01T19:52:55.301Z,10.00
2018-11-01T19:55:24.369Z,10.00
2018-11-01T19:57:53.486Z,10.00
2018-11-01T20:00:22.579Z,9.90
2018-11-01T20:02:51.601Z,10.00
2018-11-01T20:05:20.556Z,10.00
2018-11-01T20:07:49.619Z,10.10
2018-11-01T20:10:18.737Z,10.20
2018-11-01T20:12:47.678Z,10.00
2018-11-01T20:15:16.785Z,9.90
2018-11-01T20:17:45.741Z,10.10
2018-11-01T20:20:14.963Z,10.20
2018-11-01T20:22:45.071Z,10.10
2018-11-01T20:25:14.101Z,9.90
2018-11-01T20:27:43.152Z,10.00
2018-11-01T20:30:14.855Z,10.00
2018-11-01T20:32:44.305Z,9.90
2018-11-01T20:35:14.566Z,9.80
2018-11-01T20:37:43.980Z,9.80
2018-11-01T20:40:13.035Z,9.60
2018-11-01T20:42:42.575Z,9.50
2018-11-01T20:45:12.306Z,9.40
2018-11-01T20:47:41.303Z,9.60
2018-11-01T20:50:11.498Z,9.30
2018-11-01T20:52:40.488Z,9.40
2018-11-01T20:55:09.468Z,9.50
2018-11-01T20:57:38.680Z,9.60
2018-11-01T21:00:09.276Z,9.50
2018-11-01T21:02:38.589Z,9.50
2018-11-01T21:05:07.833Z,9.50
2018-11-01T21:07:36.787Z,9.80
2018-11-01T21:10:07.125Z,9.60
2018-11-01T21:12:36.404Z,9.80
2018-11-01T21:15:06.610Z,9.70
2018-11-01T21:17:35.615Z,9.80
2018-11-01T21:20:04.958Z,9.80
2018-11-01T21:22:33.930Z,9.70
2018-11-01T21:25:02.988Z,9.90
2018-11-01T21:27:31.991Z,10.00
2018-11-01T21:30:00.988Z,9.90
2018-11-01T21:32:29.984Z,10.00
2018-11-01T21:34:58.987Z,10.10
2018-11-01T21:37:27.986Z,10.00
2018-11-01T21:39:56.975Z,10.00
2018-11-01T21:42:26.018Z,10.00
2018-11-01T21:44:54.996Z,9.90
2018-11-01T21:47:24.000Z,9.90
2018-11-01T21:49:52.987Z,10.00
2018-11-01T21:52:22.026Z,9.80
2018-11-01T21:54:50.984Z,9.80
2018-11-01T21:57:20.005Z,9.90
2018-11-01T21:59:48.989Z,10.10
2018-11-01T22:02:17.967Z,9.90
2018-11-01T22:04:46.946Z,9.90
2018-11-01T22:07:16.049Z,10.00
2018-11-01T22:09:45.098Z,9.90
2018-11-01T22:12:14.034Z,9.90
2018-11-01T22:14:43.005Z,9.80
2018-11-01T22:17:12.016Z,9.80
2018-11-01T22:19:40.996Z,9.90
2018-11-01T22:22:09.992Z,9.80
2018-11-01T22:24:38.981Z,9.70
2018-11-01T22:27:08.007Z,9.70
2018-11-01T22:29:37.042Z,9.70
2018-11-01T22:32:06.174Z,9.90
2018-11-01T22:34:35.141Z,9.90
2018-11-01T22:37:04.172Z,9.80
2018-11-01T22:39:33.170Z,9.60
2018-11-01T22:42:02.678Z,9.50
2018-11-01T22:44:31.659Z,9.50
2018-11-01T22:47:00.651Z,9.50
2018-11-01T22:49:29.633Z,9.60
2018-11-01T22:51:58.725Z,9.70
2018-11-01T22:54:27.692Z,9.70
2018-11-01T22:56:56.691Z,9.70
2018-11-01T22:59:25.655Z,9.70
2018-11-01T23:01:54.645Z,9.60
2018-11-01T23:04:23.738Z,9.70
2018-11-01T23:06:52.733Z,9.70
2018-11-01T23:09:21.697Z,9.80
2018-11-01T23:11:50.729Z,9.80
2018-11-01T23:14:19.711Z,9.70
2018-11-01T23:16:48.698Z,9.60
2018-11-01T23:19:17.676Z,9.70
2018-11-01T23:21:46.770Z,9.80
2018-11-01T23:24:15.948Z,9.70
2018-11-01T23:26:44.926Z,9.60
2018-11-01T23:29:13.987Z,9.60
2018-11-01T23:31:43.041Z,9.60
2018-11-01T23:34:12.048Z,9.60
2018-11-01T23:36:46.558Z,9.70
2018-11-01T23:39:20.909Z,9.70
2018-11-01T23:41:55.446Z,9.60
2018-11-01T23:44:29.739Z,9.70
2018-11-01T23:47:04.187Z,9.60
2018-11-01T23:49:35.097Z,9.50
2018-11-01T23:52:09.639Z,9.50
2018-11-01T23:54:38.641Z,9.60
2018-11-01T23:57:07.638Z,9.50
2018-11-01T23:59:36.634Z,9.60
